Philadelphia, Missouri
Current Conditions -  °F | °C
As of 12:35 PM on Monday 26 Jan 2015 (Local Time) from KHAE Reporting Station
Broken Clouds Broken Clouds  
Wind Chill: 34°   Ceiling: 6500
Heat Index: 41°   Visibility: 10mi
Dew Point: 32°   Wind: 13mph
Humidity: 70%   Direction: 190°S
Pressure: 29.85"   Gusts: 18mph
Location:  39.84°N, 91.74°W
Report Text: KHAE 261835Z AUTO 19011G16KT 10SM BKN065 05/00 A2985 RMK AO2
Loading
Personal Weather Stations






























Interactive Weather Map New forecast layout! Learn more

10-Day Weather Forecast

Advertisements
Track Severe Weather on mobile